Time;durP1;ratioP1;P1;durP2;ratioP2;P2;SDS_P1;SDS_P2;PMS_P1;PMS_P2;Temp;Humidity;BMP_temperature;BMP_pressure;BME280_temperature;BME280_humidity;BME280_pressure;Samples;Min_cycle;Max_cycle;Signal;HPM_P1;HPM_P2
2023/06/06 00:00:16;;;;;;;11.15;8.25;;;11.20;99.90;;;;;;5044410;28;20052;-70
2023/06/06 00:02:44;;;;;;;9.93;7.72;;;11.20;99.90;;;;;;5052965;28;20036;-71
2023/06/06 00:05:14;;;;;;;11.52;8.55;;;11.20;99.90;;;;;;5058169;28;20051;-70
2023/06/06 00:07:42;;;;;;;10.70;7.57;;;11.10;99.90;;;;;;5061156;28;20044;-70
2023/06/06 00:10:10;;;;;;;10.15;7.78;;;11.10;99.90;;;;;;5044653;28;20040;-70
2023/06/06 00:12:37;;;;;;;11.02;7.68;;;11.00;99.90;;;;;;5064071;28;20132;-70
2023/06/06 00:15:05;;;;;;;10.60;8.40;;;10.90;99.90;;;;;;5058423;28;20106;-70
2023/06/06 00:17:31;;;;;;;11.95;8.50;;;10.90;99.90;;;;;;5066255;28;20440;-70
2023/06/06 00:19:57;;;;;;;11.60;8.60;;;10.90;99.90;;;;;;5044219;28;20496;-70
2023/06/06 00:22:23;;;;;;;11.48;8.07;;;10.90;99.90;;;;;;5047191;28;20032;-70
2023/06/06 00:24:53;;;;;;;12.35;9.40;;;10.90;99.90;;;;;;5062006;28;20040;-70
2023/06/06 00:27:19;;;;;;;12.33;8.83;;;10.90;99.90;;;;;;5049457;28;20080;-71
2023/06/06 00:29:45;;;;;;;11.90;9.00;;;10.90;99.90;;;;;;5061182;28;20137;-71
2023/06/06 00:32:17;;;;;;;9.68;8.68;;;10.80;99.90;;;;;;5045412;28;20707;-71
2023/06/06 00:34:43;;;;;;;12.30;8.43;;;10.80;99.90;;;;;;5062791;28;20054;-70
2023/06/06 00:37:09;;;;;;;13.00;9.40;;;10.80;99.90;;;;;;5046948;28;20044;-73
2023/06/06 00:39:34;;;;;;;11.85;8.73;;;10.80;99.90;;;;;;5030497;28;20116;-70
2023/06/06 00:42:00;;;;;;;10.95;8.63;;;10.80;99.90;;;;;;5061129;28;20111;-70
2023/06/06 00:44:26;;;;;;;12.68;9.43;;;10.90;99.90;;;;;;5029991;28;20109;-70
2023/06/06 00:46:52;;;;;;;11.85;9.15;;;10.90;99.90;;;;;;5040467;28;20258;-69
2023/06/06 00:49:18;;;;;;;10.93;8.93;;;10.80;99.90;;;;;;5047023;28;20507;-69
2023/06/06 00:51:45;;;;;;;11.27;9.63;;;10.80;99.90;;;;;;5048909;28;20040;-69
2023/06/06 00:54:13;;;;;;;13.23;10.20;;;10.80;99.90;;;;;;5068076;28;20068;-69
2023/06/06 00:56:41;;;;;;;13.93;9.15;;;10.80;99.90;;;;;;5035290;28;20117;-69
2023/06/06 00:59:07;;;;;;;10.48;9.38;;;10.80;99.90;;;;;;5064703;28;20566;-69
2023/06/06 01:01:34;;;;;;;11.82;8.93;;;10.80;99.90;;;;;;5060350;28;20052;-70
2023/06/06 01:04:04;;;;;;;12.15;9.43;;;10.80;99.90;;;;;;5049758;28;20039;-70
2023/06/06 01:06:34;;;;;;;10.70;8.40;;;10.70;99.90;;;;;;5048998;28;20052;-70
2023/06/06 01:09:06;;;;;;;9.65;8.45;;;10.70;99.90;;;;;;5066148;28;20142;-69
2023/06/06 01:11:44;;;;;;;11.55;8.80;;;10.70;99.90;;;;;;5044432;28;20054;-70
2023/06/06 01:14:35;;;;;;;10.95;9.55;;;10.70;99.90;;;;;;5059192;28;20036;-69
2023/06/06 01:17:03;;;;;;;10.85;8.25;;;10.70;99.90;;;;;;5066019;28;20048;-70
2023/06/06 01:19:32;;;;;;;10.10;8.10;;;10.60;99.90;;;;;;5051837;28;20040;-70
2023/06/06 01:21:58;;;;;;;10.20;8.07;;;10.60;99.90;;;;;;5060786;28;20055;-70
2023/06/06 01:24:27;;;;;;;13.52;10.85;;;10.60;99.90;;;;;;5062947;28;20717;-69
2023/06/06 01:26:54;;;;;;;13.90;10.80;;;10.60;99.90;;;;;;5051060;28;20040;-70
2023/06/06 01:29:21;;;;;;;16.20;11.27;;;10.50;99.90;;;;;;5033709;28;20072;-70
2023/06/06 01:32:18;;;;;;;15.23;10.68;;;10.50;99.90;;;;;;5048895;28;20036;-71
2023/06/06 01:34:48;;;;;;;16.70;11.88;;;10.50;99.90;;;;;;5038683;28;20052;-70
2023/06/06 01:37:29;;;;;;;16.67;11.77;;;10.40;99.90;;;;;;5063783;28;20071;-72
2023/06/06 01:39:56;;;;;;;14.57;11.77;;;10.40;99.90;;;;;;5066369;28;20036;-70
2023/06/06 01:42:23;;;;;;;13.43;11.23;;;10.40;99.90;;;;;;5064819;28;20096;-70
2023/06/06 01:44:52;;;;;;;13.82;11.43;;;10.40;99.90;;;;;;5059734;28;20061;-70
2023/06/06 01:47:18;;;;;;;17.48;10.95;;;10.40;99.90;;;;;;5062330;28;20052;-70
2023/06/06 01:49:45;;;;;;;13.13;10.70;;;10.40;99.90;;;;;;5064165;28;20049;-70
2023/06/06 01:52:11;;;;;;;13.43;10.88;;;10.40;99.90;;;;;;5063305;28;20269;-70
2023/06/06 01:54:40;;;;;;;15.25;11.30;;;10.40;99.90;;;;;;5031456;28;20036;-70
2023/06/06 01:57:07;;;;;;;12.50;10.60;;;10.40;99.90;;;;;;5064181;28;20388;-70
2023/06/06 01:59:33;;;;;;;14.27;10.52;;;10.40;99.90;;;;;;5062059;28;20431;-70
2023/06/06 02:02:00;;;;;;;13.88;9.93;;;10.40;99.90;;;;;;5059938;28;20040;-70
2023/06/06 02:04:26;;;;;;;11.80;9.95;;;10.40;99.90;;;;;;5076092;28;20048;-70
2023/06/06 02:06:51;;;;;;;12.95;10.23;;;10.40;99.90;;;;;;5066036;28;20049;-70
2023/06/06 02:09:17;;;;;;;10.48;8.20;;;10.50;99.90;;;;;;5057756;28;20075;-70
2023/06/06 02:11:43;;;;;;;14.43;10.80;;;10.40;99.90;;;;;;5057545;28;20106;-70
2023/06/06 02:14:09;;;;;;;13.48;11.23;;;10.40;99.90;;;;;;5056811;28;20048;-70
2023/06/06 02:16:36;;;;;;;12.80;9.85;;;10.30;99.90;;;;;;5052871;28;20059;-70
2023/06/06 02:19:02;;;;;;;16.15;11.77;;;10.40;99.90;;;;;;5048034;28;20048;-70
2023/06/06 02:21:28;;;;;;;14.52;10.43;;;10.40;99.90;;;;;;5036201;28;20044;-70
2023/06/06 02:23:54;;;;;;;14.43;10.82;;;10.30;99.90;;;;;;5034894;28;20052;-70
2023/06/06 02:26:21;;;;;;;11.32;8.88;;;10.30;99.90;;;;;;5043869;28;20520;-70
2023/06/06 02:28:47;;;;;;;14.50;10.20;;;10.30;99.90;;;;;;5058354;28;20036;-70
2023/06/06 02:31:14;;;;;;;13.70;10.68;;;10.40;99.90;;;;;;5066726;28;20059;-71
2023/06/06 02:33:40;;;;;;;15.75;11.02;;;10.40;99.90;;;;;;5047301;28;20915;-70
2023/06/06 02:36:06;;;;;;;14.07;10.30;;;10.40;99.90;;;;;;5062586;28;20044;-73
2023/06/06 02:38:32;;;;;;;11.88;9.88;;;10.40;99.90;;;;;;5064218;28;20047;-73
2023/06/06 02:40:58;;;;;;;11.45;10.25;;;10.40;99.90;;;;;;5063376;28;20036;-73
2023/06/06 02:43:24;;;;;;;13.70;11.40;;;10.40;99.90;;;;;;5063484;28;20063;-73
2023/06/06 02:45:50;;;;;;;14.98;11.32;;;10.30;99.90;;;;;;5045030;28;20040;-73
2023/06/06 02:48:16;;;;;;;15.18;10.85;;;10.30;99.90;;;;;;5052065;28;20121;-73
2023/06/06 02:50:42;;;;;;;16.85;11.57;;;10.30;99.90;;;;;;5048812;28;20145;-73
2023/06/06 02:53:08;;;;;;;12.77;9.88;;;10.20;99.90;;;;;;5048862;28;20051;-73
2023/06/06 02:55:33;;;;;;;12.70;10.55;;;10.30;99.90;;;;;;5046748;28;20040;-72
2023/06/06 02:57:59;;;;;;;17.02;12.80;;;10.20;99.90;;;;;;5053049;28;20043;-73
2023/06/06 03:00:25;;;;;;;13.77;11.27;;;10.20;99.90;;;;;;5045992;28;20048;-73
2023/06/06 03:02:51;;;;;;;16.63;12.13;;;10.20;99.90;;;;;;5061626;28;20044;-73
2023/06/06 03:05:17;;;;;;;18.70;12.60;;;10.20;99.90;;;;;;5031646;28;20040;-71
2023/06/06 03:07:42;;;;;;;15.45;11.20;;;10.20;99.90;;;;;;5048812;28;20075;-70
2023/06/06 03:10:09;;;;;;;18.90;13.55;;;10.20;99.90;;;;;;5019174;28;20048;-71
2023/06/06 03:12:35;;;;;;;17.60;13.68;;;10.20;99.90;;;;;;5045096;28;20435;-71
2023/06/06 03:15:01;;;;;;;18.95;14.50;;;10.30;99.90;;;;;;5042429;28;20040;-71
2023/06/06 03:17:27;;;;;;;19.15;14.30;;;10.20;99.90;;;;;;5028081;28;20036;-71
2023/06/06 03:19:52;;;;;;;15.95;11.43;;;10.20;99.90;;;;;;5044144;28;20408;-71
2023/06/06 03:22:18;;;;;;;18.77;12.52;;;10.20;99.90;;;;;;5042482;28;20052;-71
2023/06/06 03:24:45;;;;;;;15.93;11.00;;;10.20;99.90;;;;;;5043086;28;20060;-70
2023/06/06 03:27:14;;;;;;;13.35;10.90;;;10.20;99.90;;;;;;5027201;28;20053;-71
2023/06/06 03:29:40;;;;;;;15.45;12.93;;;10.20;99.90;;;;;;5045098;28;20472;-71
2023/06/06 03:32:07;;;;;;;18.05;12.52;;;10.20;99.90;;;;;;5026434;28;20076;-71
2023/06/06 03:34:32;;;;;;;14.27;11.52;;;10.30;99.90;;;;;;5029188;28;20059;-70
2023/06/06 03:36:58;;;;;;;17.25;12.02;;;10.20;99.90;;;;;;5039191;28;20040;-71
2023/06/06 03:39:25;;;;;;;15.95;11.30;;;10.20;99.90;;;;;;5013122;28;20147;-71
2023/06/06 03:41:51;;;;;;;16.05;11.43;;;10.30;99.90;;;;;;5027579;28;20128;-71
2023/06/06 03:44:16;;;;;;;14.77;11.05;;;10.30;99.90;;;;;;5043316;28;20131;-71
2023/06/06 03:46:42;;;;;;;17.67;12.30;;;10.30;99.90;;;;;;5036333;28;20044;-71
2023/06/06 03:49:08;;;;;;;16.05;11.55;;;10.30;99.90;;;;;;5029580;28;20107;-71
2023/06/06 03:51:35;;;;;;;14.27;12.15;;;10.30;99.90;;;;;;5027683;28;20032;-71
2023/06/06 03:54:01;;;;;;;14.07;10.85;;;10.30;99.90;;;;;;5057354;28;20396;-71
2023/06/06 03:56:28;;;;;;;16.92;11.40;;;10.30;99.90;;;;;;5043267;28;20032;-72
2023/06/06 03:58:53;;;;;;;20.63;14.32;;;10.30;99.90;;;;;;5029353;28;20515;-71
2023/06/06 04:01:20;;;;;;;19.48;12.60;;;10.30;99.90;;;;;;5007594;28;20044;-71
2023/06/06 04:03:47;;;;;;;17.55;12.15;;;10.40;99.90;;;;;;5060421;28;20082;-71
2023/06/06 04:06:13;;;;;;;23.77;14.15;;;10.40;99.90;;;;;;5024224;28;20630;-71
2023/06/06 04:08:40;;;;;;;18.23;13.45;;;10.40;99.90;;;;;;5041827;28;20144;-71
2023/06/06 04:11:06;;;;;;;14.52;11.77;;;10.40;99.90;;;;;;5040339;28;20048;-70
2023/06/06 04:13:32;;;;;;;17.05;11.55;;;10.40;99.90;;;;;;5009382;28;20049;-71
2023/06/06 04:15:57;;;;;;;18.98;12.68;;;10.40;99.90;;;;;;5026212;28;20090;-71
2023/06/06 04:18:23;;;;;;;15.35;11.43;;;10.40;99.90;;;;;;5045129;28;20052;-71
2023/06/06 04:20:52;;;;;;;18.13;13.15;;;10.40;99.90;;;;;;5042213;28;20076;-70
2023/06/06 04:23:18;;;;;;;18.95;12.88;;;10.40;99.90;;;;;;5045822;28;20079;-70
2023/06/06 04:25:44;;;;;;;16.77;12.07;;;10.40;99.90;;;;;;5027113;28;20680;-70
2023/06/06 04:28:10;;;;;;;16.77;12.10;;;10.50;99.90;;;;;;5010308;28;20139;-71
2023/06/06 04:30:36;;;;;;;17.00;12.45;;;10.50;99.90;;;;;;5022573;28;20033;-70
2023/06/06 04:33:02;;;;;;;19.10;12.88;;;10.50;99.90;;;;;;5040331;28;20041;-71
2023/06/06 04:35:28;;;;;;;17.83;12.18;;;10.60;99.90;;;;;;5008296;28;20063;-71
2023/06/06 04:37:57;;;;;;;16.58;10.93;;;10.60;99.90;;;;;;5015223;28;20611;-70
2023/06/06 04:40:32;;;;;;;16.02;10.70;;;10.60;99.90;;;;;;5011490;28;20063;-71
2023/06/06 04:43:01;;;;;;;14.45;10.57;;;10.60;99.90;;;;;;5022388;28;20067;-71
2023/06/06 04:45:27;;;;;;;16.20;11.07;;;10.70;99.90;;;;;;5036297;28;20539;-71
2023/06/06 04:47:55;;;;;;;18.13;11.40;;;10.80;99.90;;;;;;5027941;28;20037;-71
2023/06/06 04:50:23;;;;;;;15.88;11.02;;;10.90;99.90;;;;;;5045317;28;20041;-74
2023/06/06 04:52:49;;;;;;;17.42;11.40;;;10.90;99.90;;;;;;5045983;28;20889;-73
2023/06/06 04:55:15;;;;;;;16.55;10.70;;;11.00;99.90;;;;;;5041290;28;20079;-74
2023/06/06 04:57:44;;;;;;;18.95;12.20;;;11.10;99.90;;;;;;5043779;28;20101;-72
2023/06/06 05:00:14;;;;;;;14.07;11.05;;;11.10;99.90;;;;;;5041402;28;20528;-72
2023/06/06 05:02:40;;;;;;;15.25;10.77;;;11.20;99.90;;;;;;5042424;28;20049;-72
2023/06/06 05:05:09;;;;;;;15.13;10.10;;;11.30;99.90;;;;;;5027018;28;20041;-73
2023/06/06 05:07:35;;;;;;;15.02;10.23;;;11.30;99.90;;;;;;5025181;28;20040;-73
2023/06/06 05:10:01;;;;;;;15.75;10.93;;;11.40;99.90;;;;;;5043495;28;20090;-74
2023/06/06 05:12:27;;;;;;;17.90;10.60;;;11.40;99.90;;;;;;5063518;28;20044;-70
2023/06/06 05:14:53;;;;;;;17.05;10.32;;;11.50;99.90;;;;;;5042876;28;20377;-70
2023/06/06 05:17:20;;;;;;;16.20;9.77;;;11.60;99.90;;;;;;5061197;28;20064;-70
2023/06/06 05:19:46;;;;;;;16.63;10.40;;;11.60;99.90;;;;;;5061434;28;20155;-70
2023/06/06 05:22:16;;;;;;;15.07;9.63;;;11.70;99.90;;;;;;5074660;28;20044;-71
2023/06/06 05:24:44;;;;;;;14.13;10.77;;;11.80;99.90;;;;;;5074451;28;20047;-70
2023/06/06 05:27:10;;;;;;;14.43;9.82;;;11.80;99.90;;;;;;5077725;28;20048;-70
2023/06/06 05:29:37;;;;;;;15.35;9.43;;;11.90;99.90;;;;;;5076754;28;20032;-70
2023/06/06 05:32:04;;;;;;;20.58;10.00;;;11.90;99.90;;;;;;5061796;28;20565;-70
2023/06/06 05:34:30;;;;;;;13.10;8.95;;;12.00;99.90;;;;;;5034240;28;20036;-70
2023/06/06 05:36:59;;;;;;;15.75;9.75;;;12.00;99.90;;;;;;5051784;28;20818;-70
2023/06/06 05:39:25;;;;;;;13.38;8.75;;;12.10;99.90;;;;;;5049272;28;20047;-71
2023/06/06 05:41:54;;;;;;;16.70;8.90;;;12.10;99.90;;;;;;5065850;28;20036;-70
2023/06/06 05:44:22;;;;;;;21.60;9.40;;;12.20;99.90;;;;;;5045490;28;20044;-70
2023/06/06 05:46:53;;;;;;;19.80;9.68;;;12.20;99.90;;;;;;5056574;28;20040;-70
2023/06/06 05:49:19;;;;;;;13.32;8.98;;;12.30;99.90;;;;;;5055089;28;20040;-71
2023/06/06 05:51:45;;;;;;;15.30;8.52;;;12.30;99.90;;;;;;5047776;28;20067;-71
2023/06/06 05:54:14;;;;;;;11.13;8.05;;;12.40;99.90;;;;;;5048795;28;20067;-70
2023/06/06 05:56:40;;;;;;;16.00;9.70;;;12.40;99.90;;;;;;5046837;28;20492;-71
2023/06/06 05:59:06;;;;;;;14.07;8.20;;;12.50;99.90;;;;;;5064032;28;20051;-70
2023/06/06 06:01:31;;;;;;;15.02;8.38;;;12.50;99.90;;;;;;5073361;28;20048;-71
2023/06/06 06:03:57;;;;;;;12.82;8.73;;;12.60;99.90;;;;;;5047586;28;20036;-72
2023/06/06 06:06:23;;;;;;;16.50;9.18;;;12.70;99.90;;;;;;5049521;28;20072;-71
2023/06/06 06:08:50;;;;;;;14.45;9.18;;;12.70;99.90;;;;;;5062530;28;20086;-71
2023/06/06 06:11:15;;;;;;;13.65;7.97;;;12.80;99.90;;;;;;5063033;28;20056;-71
2023/06/06 06:13:42;;;;;;;15.65;8.70;;;12.80;99.90;;;;;;5063883;28;20051;-70
2023/06/06 06:16:08;;;;;;;13.07;8.75;;;12.90;99.90;;;;;;5048558;28;20139;-72
2023/06/06 06:18:34;;;;;;;14.07;8.63;;;12.90;99.90;;;;;;5049038;28;20567;-71
2023/06/06 06:21:00;;;;;;;16.42;8.88;;;12.90;99.90;;;;;;5043446;28;20075;-72
2023/06/06 06:23:26;;;;;;;13.48;8.07;;;13.00;99.90;;;;;;5053748;28;20072;-71
2023/06/06 06:25:52;;;;;;;12.57;8.20;;;13.00;99.90;;;;;;5059155;28;20072;-71
2023/06/06 06:28:19;;;;;;;13.90;8.80;;;13.10;99.90;;;;;;5046511;28;20514;-71
2023/06/06 06:30:48;;;;;;;14.07;8.82;;;13.20;99.90;;;;;;5062752;28;20071;-71
2023/06/06 06:33:14;;;;;;;14.40;7.75;;;13.10;99.90;;;;;;5066226;28;20109;-71
2023/06/06 06:35:42;;;;;;;12.85;8.00;;;13.20;99.90;;;;;;5050605;28;20036;-71
2023/06/06 06:38:08;;;;;;;14.27;8.25;;;13.20;99.90;;;;;;5077090;28;20123;-71
2023/06/06 06:40:34;;;;;;;13.52;8.05;;;13.30;99.90;;;;;;5048729;28;20116;-71
2023/06/06 06:42:59;;;;;;;13.95;8.43;;;13.40;99.90;;;;;;5074012;28;20071;-74
2023/06/06 06:45:26;;;;;;;12.43;8.02;;;13.50;99.90;;;;;;5081222;28;20070;-74
2023/06/06 06:47:52;;;;;;;13.68;7.85;;;13.60;99.90;;;;;;5080252;28;20044;-74
2023/06/06 06:50:18;;;;;;;12.10;8.45;;;13.70;99.90;;;;;;5065575;28;20458;-72
2023/06/06 06:52:44;;;;;;;12.93;7.15;;;13.80;99.90;;;;;;5077055;28;20063;-72
2023/06/06 06:55:10;;;;;;;14.70;8.35;;;13.90;99.90;;;;;;5059128;28;20044;-73
2023/06/06 06:57:38;;;;;;;15.70;7.72;;;14.00;99.90;;;;;;5062538;28;20105;-73
2023/06/06 07:00:12;;;;;;;12.10;7.45;;;14.10;99.90;;;;;;5063858;28;20407;-74
2023/06/06 07:02:44;;;;;;;12.32;7.85;;;14.20;99.90;;;;;;5062739;28;20055;-73
2023/06/06 07:05:11;;;;;;;12.27;7.80;;;14.30;99.90;;;;;;5059919;28;20097;-74
2023/06/06 07:07:47;;;;;;;14.02;8.05;;;14.30;99.90;;;;;;5065136;28;21061;-73
2023/06/06 07:10:15;;;;;;;13.48;7.03;;;14.30;99.90;;;;;;5060928;28;20079;-74
2023/06/06 07:12:41;;;;;;;11.55;7.78;;;14.40;99.90;;;;;;5062515;28;20040;-73
2023/06/06 07:15:08;;;;;;;13.13;8.00;;;14.50;99.90;;;;;;5048602;28;20044;-74
2023/06/06 07:17:35;;;;;;;12.23;7.50;;;14.50;99.90;;;;;;5082533;28;20056;-72
2023/06/06 07:20:07;;;;;;;12.88;6.63;;;14.60;99.90;;;;;;5076799;28;20036;-72
2023/06/06 07:22:37;;;;;;;10.27;6.72;;;14.70;99.90;;;;;;5061380;28;20048;-73
2023/06/06 07:25:04;;;;;;;12.95;7.90;;;14.90;99.90;;;;;;5058938;28;20055;-74
2023/06/06 07:27:37;;;;;;;13.23;7.68;;;15.10;99.90;;;;;;5057980;28;20109;-73
2023/06/06 07:30:12;;;;;;;11.63;7.10;;;15.20;99.90;;;;;;5047820;28;20126;-73
2023/06/06 07:32:41;;;;;;;13.38;6.60;;;15.20;99.90;;;;;;5064947;28;20032;-73
2023/06/06 07:35:11;;;;;;;13.87;7.17;;;15.30;99.90;;;;;;5056767;28;20492;-74
2023/06/06 07:37:37;;;;;;;12.55;7.28;;;15.40;99.90;;;;;;5061328;28;20354;-73
2023/06/06 07:40:11;;;;;;;11.00;7.22;;;15.40;99.90;;;;;;5048846;28;20051;-75
2023/06/06 07:42:39;;;;;;;13.93;6.68;;;15.50;99.90;;;;;;5060977;28;20052;-73
2023/06/06 07:45:05;;;;;;;12.65;6.95;;;15.60;99.90;;;;;;5071267;28;20051;-74
2023/06/06 07:47:30;;;;;;;13.25;6.95;;;15.70;99.90;;;;;;5061751;28;20101;-73
2023/06/06 07:49:56;;;;;;;11.98;6.63;;;15.80;99.90;;;;;;5080216;28;20427;-73
2023/06/06 07:52:22;;;;;;;12.27;6.82;;;15.90;99.90;;;;;;5069537;28;20522;-73
2023/06/06 07:54:48;;;;;;;9.55;6.35;;;16.00;99.90;;;;;;5044219;28;20048;-73
2023/06/06 07:57:17;;;;;;;12.95;6.75;;;16.10;99.90;;;;;;5059795;28;20437;-74
2023/06/06 07:59:44;;;;;;;9.38;6.35;;;16.20;99.90;;;;;;5031864;28;20032;-73
2023/06/06 08:02:10;;;;;;;11.80;7.00;;;16.20;99.90;;;;;;5075088;28;20054;-75
2023/06/06 08:04:36;;;;;;;10.50;6.50;;;16.30;99.90;;;;;;5048381;28;20050;-75
2023/06/06 08:07:04;;;;;;;13.60;6.63;;;16.40;99.90;;;;;;5061828;28;20532;-74
2023/06/06 08:09:31;;;;;;;8.75;6.13;;;16.30;99.90;;;;;;5062203;28;20051;-74
2023/06/06 08:11:56;;;;;;;12.13;6.15;;;16.30;99.90;;;;;;5030027;28;20480;-75
2023/06/06 08:14:22;;;;;;;11.10;6.43;;;16.30;99.90;;;;;;5074899;28;20043;-74
2023/06/06 08:16:49;;;;;;;10.65;6.50;;;16.30;99.90;;;;;;5047225;28;20462;-73
2023/06/06 08:19:14;;;;;;;11.35;6.05;;;16.40;99.90;;;;;;5080706;28;20052;-74
2023/06/06 08:21:40;;;;;;;10.48;6.57;;;16.40;99.90;;;;;;5065936;28;20032;-72
2023/06/06 08:24:06;;;;;;;12.70;6.50;;;16.50;99.90;;;;;;5063826;28;20049;-72
2023/06/06 08:26:32;;;;;;;12.20;6.28;;;16.60;99.90;;;;;;5049343;28;20059;-73
2023/06/06 08:28:58;;;;;;;8.73;6.15;;;16.60;99.90;;;;;;5059364;28;20040;-73
2023/06/06 08:31:24;;;;;;;7.50;5.78;;;16.80;99.90;;;;;;5047279;28;20032;-70
2023/06/06 08:33:53;;;;;;;12.48;6.28;;;16.90;99.90;;;;;;5044092;28;20037;-71
2023/06/06 08:36:19;;;;;;;11.32;6.28;;;17.00;99.90;;;;;;5029330;28;20101;-71
2023/06/06 08:38:45;;;;;;;10.45;6.18;;;17.00;99.90;;;;;;5074851;28;20407;-70
2023/06/06 08:41:12;;;;;;;10.18;5.72;;;17.20;99.90;;;;;;5061587;28;20058;-70
2023/06/06 08:43:40;;;;;;;9.40;5.45;;;17.20;99.90;;;;;;5061602;28;20587;-71
2023/06/06 08:46:05;;;;;;;9.90;6.10;;;17.30;99.90;;;;;;5074063;28;20051;-71
2023/06/06 08:48:35;;;;;;;11.35;6.10;;;17.40;99.90;;;;;;5075610;28;20262;-70
2023/06/06 08:51:03;;;;;;;10.85;6.47;;;17.50;99.90;;;;;;5061792;28;20036;-71
2023/06/06 08:53:30;;;;;;;9.18;6.00;;;17.60;99.90;;;;;;5076372;28;20109;-73
2023/06/06 08:55:57;;;;;;;12.55;6.95;;;17.70;99.90;;;;;;5061405;28;20094;-72
2023/06/06 08:58:23;;;;;;;11.55;6.00;;;17.80;99.90;;;;;;5072482;28;20044;-72
2023/06/06 09:00:53;;;;;;;11.60;6.32;;;17.90;99.90;;;;;;5075989;28;20079;-72
2023/06/06 09:03:19;;;;;;;13.10;7.38;;;18.00;99.90;;;;;;5049109;28;20097;-72
2023/06/06 09:05:46;;;;;;;10.98;6.18;;;18.10;99.90;;;;;;5049124;28;20396;-72
2023/06/06 09:08:13;;;;;;;11.30;7.00;;;18.20;99.90;;;;;;5067148;28;20063;-72
2023/06/06 09:10:38;;;;;;;8.93;6.45;;;18.30;99.90;;;;;;5066087;28;20051;-72
2023/06/06 09:13:04;;;;;;;11.82;7.22;;;18.30;99.90;;;;;;5050325;28;20060;-72
2023/06/06 09:15:30;;;;;;;9.60;6.50;;;18.40;99.90;;;;;;5067917;28;20151;-72
2023/06/06 09:17:56;;;;;;;12.40;6.38;;;18.50;99.90;;;;;;5048245;28;20044;-73
2023/06/06 09:20:23;;;;;;;10.40;6.70;;;18.60;99.90;;;;;;5058540;28;20068;-74
2023/06/06 09:22:50;;;;;;;10.40;6.90;;;18.60;99.90;;;;;;5064767;28;20048;-73
2023/06/06 09:25:38;;;;;;;10.85;6.57;;;18.70;99.90;;;;;;5049191;28;20385;-74
2023/06/06 09:28:04;;;;;;;9.52;6.43;;;18.70;99.90;;;;;;5045541;28;20032;-73
2023/06/06 09:30:31;;;;;;;9.77;6.78;;;18.70;99.90;;;;;;5083580;28;20086;-74
2023/06/06 09:33:04;;;;;;;12.05;6.75;;;18.60;99.90;;;;;;5066711;28;20492;-71
2023/06/06 09:35:41;;;;;;;11.77;6.63;;;18.60;99.90;;;;;;5064185;28;20044;-72
2023/06/06 09:38:18;;;;;;;11.55;6.30;;;18.60;99.90;;;;;;5065195;28;20110;-73
2023/06/06 09:40:47;;;;;;;11.45;6.40;;;18.70;99.90;;;;;;5049876;28;20086;-72
2023/06/06 09:43:22;;;;;;;10.65;6.60;;;18.90;99.90;;;;;;5066073;28;20059;-72
2023/06/06 09:45:55;;;;;;;11.25;6.18;;;19.00;99.90;;;;;;5060242;28;20054;-72
2023/06/06 09:48:26;;;;;;;10.32;6.10;;;19.10;99.90;;;;;;5066889;28;20185;-73
2023/06/06 09:50:55;;;;;;;8.55;5.88;;;19.20;99.90;;;;;;5047325;28;20495;-73
2023/06/06 09:53:28;;;;;;;10.38;6.70;;;19.20;99.90;;;;;;5059987;28;20040;-73
2023/06/06 09:55:58;;;;;;;9.23;5.90;;;19.20;99.90;;;;;;5049880;28;20036;-73
2023/06/06 09:58:28;;;;;;;11.60;6.40;;;19.30;99.90;;;;;;5050500;28;20514;-74
2023/06/06 10:00:58;;;;;;;9.32;6.90;;;19.40;99.90;;;;;;5060118;28;20048;-74
2023/06/06 10:03:25;;;;;;;14.75;7.03;;;19.40;99.90;;;;;;5048574;28;20135;-73
2023/06/06 10:05:52;;;;;;;11.25;7.07;;;19.40;99.90;;;;;;5052456;28;20036;-73
2023/06/06 10:08:19;;;;;;;12.52;7.70;;;19.60;99.90;;;;;;5066279;28;20083;-73
2023/06/06 10:10:49;;;;;;;11.23;7.32;;;19.70;99.90;;;;;;5029874;28;20045;-73
2023/06/06 10:13:22;;;;;;;9.70;6.82;;;19.70;99.90;;;;;;5029756;28;20040;-73
2023/06/06 10:15:50;;;;;;;12.23;7.13;;;19.80;99.90;;;;;;5044481;28;20559;-74
2023/06/06 10:18:16;;;;;;;9.32;6.68;;;19.80;99.90;;;;;;5013705;28;20173;-74
2023/06/06 10:20:46;;;;;;;9.77;6.45;;;19.80;99.90;;;;;;5032737;28;20051;-73
2023/06/06 10:23:15;;;;;;;11.52;6.80;;;19.90;99.90;;;;;;5012343;28;20048;-73
2023/06/06 10:25:44;;;;;;;10.63;6.60;;;20.00;99.90;;;;;;5027440;28;20044;-74
2023/06/06 10:28:22;;;;;;;12.90;7.07;;;20.00;99.90;;;;;;5028773;28;20714;-72
2023/06/06 10:31:00;;;;;;;12.23;7.80;;;20.10;99.90;;;;;;5045975;28;20048;-73
2023/06/06 10:33:54;;;;;;;11.55;7.32;;;20.10;99.90;;;;;;5048152;28;20535;-73
2023/06/06 10:36:20;;;;;;;13.02;7.15;;;20.10;99.90;;;;;;5055158;28;20090;-73
2023/06/06 10:39:20;;;;;;;13.10;7.85;;;20.20;99.90;;;;;;5028645;28;20123;-73
2023/06/06 10:41:52;;;;;;;11.05;7.85;;;20.30;99.90;;;;;;5032459;28;20041;-74
2023/06/06 10:44:37;;;;;;;12.95;8.25;;;20.40;99.90;;;;;;5030286;28;20051;-73
2023/06/06 10:47:27;;;;;;;10.40;7.85;;;20.40;99.90;;;;;;5029690;28;20045;-73
2023/06/06 10:50:09;;;;;;;12.95;7.55;;;20.40;99.90;;;;;;5029805;28;20544;-71
2023/06/06 10:52:43;;;;;;;11.68;7.90;;;20.50;99.90;;;;;;5030074;28;20036;-70
2023/06/06 10:55:16;;;;;;;10.98;7.13;;;20.50;99.90;;;;;;5040850;28;20041;-71
2023/06/06 10:58:06;;;;;;;8.93;6.60;;;20.60;99.90;;;;;;5027529;28;20127;-71
2023/06/06 11:00:40;;;;;;;12.25;7.43;;;20.70;99.90;;;;;;5020693;28;20073;-71
2023/06/06 11:03:08;;;;;;;11.65;8.25;;;20.70;99.90;;;;;;5047493;28;20064;-71
2023/06/06 11:05:59;;;;;;;11.63;7.10;;;20.60;99.90;;;;;;5041453;28;20041;-71
2023/06/06 11:08:40;;;;;;;10.38;6.75;;;20.60;99.90;;;;;;5037685;28;20599;-71
2023/06/06 11:11:33;;;;;;;15.48;7.57;;;20.60;99.90;;;;;;5042460;28;20041;-71
2023/06/06 11:14:00;;;;;;;14.07;8.10;;;20.70;99.90;;;;;;5028673;28;20431;-71
2023/06/06 11:16:41;;;;;;;12.35;8.23;;;20.70;99.90;;;;;;5042473;28;20599;-70
2023/06/06 11:19:15;;;;;;;11.35;8.68;;;20.80;99.90;;;;;;5030441;28;20132;-71
2023/06/06 11:21:43;;;;;;;10.52;7.28;;;20.70;99.90;;;;;;5041213;28;20132;-71
2023/06/06 11:24:10;;;;;;;10.75;7.70;;;20.80;99.90;;;;;;5027364;28;20049;-71
2023/06/06 11:26:39;;;;;;;10.35;7.40;;;20.90;99.90;;;;;;5026912;28;20072;-71
2023/06/06 11:29:09;;;;;;;11.55;8.63;;;21.00;99.80;;;;;;5027301;28;20485;-73
2023/06/06 11:31:37;;;;;;;11.13;9.05;;;20.90;99.70;;;;;;5043604;28;20040;-72
2023/06/06 11:34:14;;;;;;;13.40;7.88;;;20.90;98.90;;;;;;5045431;28;20079;-72
2023/06/06 11:36:44;;;;;;;13.07;8.57;;;20.90;98.20;;;;;;5044380;28;20313;-72
2023/06/06 11:39:11;;;;;;;12.02;8.23;;;20.90;99.20;;;;;;5043740;28;20501;-72
2023/06/06 11:41:41;;;;;;;12.20;8.23;;;21.00;99.10;;;;;;5028766;28;20123;-72
2023/06/06 11:44:07;;;;;;;12.77;8.55;;;20.90;99.40;;;;;;5044121;28;20108;-72
2023/06/06 11:47:08;;;;;;;13.80;8.40;;;20.90;98.70;;;;;;5046743;28;20036;-72
2023/06/06 11:49:46;;;;;;;12.15;9.27;;;20.90;98.80;;;;;;5015196;28;20119;-72
2023/06/06 11:52:16;;;;;;;10.65;7.90;;;21.00;98.80;;;;;;5043595;28;20254;-72
2023/06/06 11:55:04;;;;;;;10.70;7.00;;;21.10;98.30;;;;;;5044270;28;20155;-72
2023/06/06 11:57:31;;;;;;;11.93;7.90;;;21.10;98.70;;;;;;5044358;28;20045;-73
2023/06/06 11:59:59;;;;;;;12.40;8.30;;;21.10;98.90;;;;;;5027094;28;20072;-72
2023/06/06 12:02:25;;;;;;;12.57;9.80;;;21.20;98.10;;;;;;5042619;28;20056;-72
2023/06/06 12:04:50;;;;;;;13.40;8.23;;;21.20;97.10;;;;;;5011857;28;20040;-73
2023/06/06 12:07:16;;;;;;;9.77;7.20;;;21.20;98.30;;;;;;5010530;28;20049;-71
2023/06/06 12:09:42;;;;;;;12.57;8.25;;;21.30;99.50;;;;;;5022192;28;20052;-70
2023/06/06 12:12:10;;;;;;;11.02;7.90;;;21.50;96.80;;;;;;5048763;28;20048;-70
2023/06/06 12:14:36;;;;;;;11.60;7.78;;;21.30;96.70;;;;;;5049423;28;20491;-71
2023/06/06 12:17:06;;;;;;;9.13;7.43;;;21.30;96.70;;;;;;5064358;28;20047;-71
2023/06/06 12:19:33;;;;;;;9.55;7.47;;;21.20;96.50;;;;;;5059759;28;20048;-72
2023/06/06 12:21:59;;;;;;;10.07;7.32;;;21.20;97.10;;;;;;5062284;28;20040;-72
2023/06/06 12:24:27;;;;;;;9.48;7.15;;;21.20;97.40;;;;;;5064772;28;20044;-69
2023/06/06 12:26:59;;;;;;;11.15;6.55;;;21.30;96.90;;;;;;5044585;28;20119;-71
2023/06/06 12:29:33;;;;;;;9.98;6.80;;;21.20;96.80;;;;;;5062549;28;20492;-71
2023/06/06 12:32:19;;;;;;;11.82;7.00;;;21.10;97.00;;;;;;5044578;28;20072;-71
2023/06/06 12:34:49;;;;;;;10.45;6.45;;;21.10;96.90;;;;;;5062321;28;20198;-71
2023/06/06 12:37:15;;;;;;;;;;;21.10;97.00;;;;;;5079360;28;20081;-71
2023/06/06 12:39:45;;;;;;;9.60;6.97;;;21.10;97.40;;;;;;5059897;28;19928;-72
2023/06/06 12:42:15;;;;;;;10.07;6.60;;;21.20;97.30;;;;;;5063838;28;20040;-71